sensor_id;sensor_type;location;lat;lon;timestamp;temperature;humidity
21335;DHT22;69435;52.670;13.544;2023-05-29T00:00:27;15.80;50.20
21335;DHT22;69435;52.670;13.544;2023-05-29T00:02:52;15.80;50.80
21335;DHT22;69435;52.670;13.544;2023-05-29T00:05:18;15.60;50.70
21335;DHT22;69435;52.670;13.544;2023-05-29T00:07:44;15.60;50.80
21335;DHT22;69435;52.670;13.544;2023-05-29T00:10:11;15.50;51.10
21335;DHT22;69435;52.670;13.544;2023-05-29T00:12:38;15.50;51.30
21335;DHT22;69435;52.670;13.544;2023-05-29T00:15:08;15.50;51.40
21335;DHT22;69435;52.670;13.544;2023-05-29T00:17:38;15.40;50.60
21335;DHT22;69435;52.670;13.544;2023-05-29T00:20:06;15.40;50.30
21335;DHT22;69435;52.670;13.544;2023-05-29T00:22:35;15.40;49.80
21335;DHT22;69435;52.670;13.544;2023-05-29T00:25:04;15.30;50.00
21335;DHT22;69435;52.670;13.544;2023-05-29T00:27:31;15.30;50.30
21335;DHT22;69435;52.670;13.544;2023-05-29T00:30:00;15.20;50.60
21335;DHT22;69435;52.670;13.544;2023-05-29T00:32:29;15.20;51.50
21335;DHT22;69435;52.670;13.544;2023-05-29T00:34:55;15.20;52.30
21335;DHT22;69435;52.670;13.544;2023-05-29T00:37:21;15.10;52.00
21335;DHT22;69435;52.670;13.544;2023-05-29T00:39:48;15.10;51.50
21335;DHT22;69435;52.670;13.544;2023-05-29T00:42:14;15.00;50.80
21335;DHT22;69435;52.670;13.544;2023-05-29T00:44:40;15.00;50.50
21335;DHT22;69435;52.670;13.544;2023-05-29T00:47:07;14.90;50.50
21335;DHT22;69435;52.670;13.544;2023-05-29T00:49:35;15.00;50.40
21335;DHT22;69435;52.670;13.544;2023-05-29T00:52:02;14.90;50.30
21335;DHT22;69435;52.670;13.544;2023-05-29T00:54:32;14.80;50.20
21335;DHT22;69435;52.670;13.544;2023-05-29T00:56:59;14.80;50.20
21335;DHT22;69435;52.670;13.544;2023-05-29T00:59:31;14.80;50.30
21335;DHT22;69435;52.670;13.544;2023-05-29T01:02:01;14.70;50.60
21335;DHT22;69435;52.670;13.544;2023-05-29T01:04:28;14.70;50.60
21335;DHT22;69435;52.670;13.544;2023-05-29T01:06:54;14.60;51.20
21335;DHT22;69435;52.670;13.544;2023-05-29T01:09:21;14.60;51.10
21335;DHT22;69435;52.670;13.544;2023-05-29T01:14:48;14.50;51.00
21335;DHT22;69435;52.670;13.544;2023-05-29T01:18:30;14.50;50.80
21335;DHT22;69435;52.670;13.544;2023-05-29T01:23:50;14.40;51.00
21335;DHT22;69435;52.670;13.544;2023-05-29T01:29:23;14.30;51.70
21335;DHT22;69435;52.670;13.544;2023-05-29T01:31:52;14.20;52.30
21335;DHT22;69435;52.670;13.544;2023-05-29T01:34:19;14.10;52.30
21335;DHT22;69435;52.670;13.544;2023-05-29T01:36:45;14.10;52.10
21335;DHT22;69435;52.670;13.544;2023-05-29T01:39:12;14.00;52.20
21335;DHT22;69435;52.670;13.544;2023-05-29T01:41:38;14.00;52.70
21335;DHT22;69435;52.670;13.544;2023-05-29T01:44:07;14.00;53.10
21335;DHT22;69435;52.670;13.544;2023-05-29T01:46:36;13.90;53.00
21335;DHT22;69435;52.670;13.544;2023-05-29T01:49:03;13.90;52.80
21335;DHT22;69435;52.670;13.544;2023-05-29T01:51:30;13.90;52.60
21335;DHT22;69435;52.670;13.544;2023-05-29T01:53:57;13.80;52.50
21335;DHT22;69435;52.670;13.544;2023-05-29T01:56:26;13.80;52.40
21335;DHT22;69435;52.670;13.544;2023-05-29T01:58:54;13.80;52.50
21335;DHT22;69435;52.670;13.544;2023-05-29T02:01:22;13.70;52.80
21335;DHT22;69435;52.670;13.544;2023-05-29T02:03:50;13.70;53.60
21335;DHT22;69435;52.670;13.544;2023-05-29T02:06:17;13.60;53.40
21335;DHT22;69435;52.670;13.544;2023-05-29T02:08:43;13.60;53.20
21335;DHT22;69435;52.670;13.544;2023-05-29T02:11:10;13.60;53.00
21335;DHT22;69435;52.670;13.544;2023-05-29T02:13:37;13.60;52.90
21335;DHT22;69435;52.670;13.544;2023-05-29T02:16:03;13.50;52.90
21335;DHT22;69435;52.670;13.544;2023-05-29T02:18:29;13.50;52.80
21335;DHT22;69435;52.670;13.544;2023-05-29T02:20:54;13.50;53.10
21335;DHT22;69435;52.670;13.544;2023-05-29T02:23:20;13.40;52.90
21335;DHT22;69435;52.670;13.544;2023-05-29T02:25:46;13.40;52.90
21335;DHT22;69435;52.670;13.544;2023-05-29T02:28:12;13.40;52.90
21335;DHT22;69435;52.670;13.544;2023-05-29T02:30:38;13.40;52.90
21335;DHT22;69435;52.670;13.544;2023-05-29T02:33:05;13.30;53.10
21335;DHT22;69435;52.670;13.544;2023-05-29T02:35:31;13.30;53.20
21335;DHT22;69435;52.670;13.544;2023-05-29T02:37:57;13.30;53.00
21335;DHT22;69435;52.670;13.544;2023-05-29T02:40:23;13.30;53.00
21335;DHT22;69435;52.670;13.544;2023-05-29T02:42:50;13.20;53.10
21335;DHT22;69435;52.670;13.544;2023-05-29T02:45:16;13.20;53.20
21335;DHT22;69435;52.670;13.544;2023-05-29T02:47:42;13.10;53.20
21335;DHT22;69435;52.670;13.544;2023-05-29T02:50:08;13.10;53.30
21335;DHT22;69435;52.670;13.544;2023-05-29T02:52:38;13.10;53.30
21335;DHT22;69435;52.670;13.544;2023-05-29T02:55:04;13.10;53.30
21335;DHT22;69435;52.670;13.544;2023-05-29T02:57:31;13.10;53.60
21335;DHT22;69435;52.670;13.544;2023-05-29T02:59:58;13.00;53.40
21335;DHT22;69435;52.670;13.544;2023-05-29T03:02:24;13.10;54.10
21335;DHT22;69435;52.670;13.544;2023-05-29T03:04:50;13.00;54.10
21335;DHT22;69435;52.670;13.544;2023-05-29T03:07:17;12.90;53.40
21335;DHT22;69435;52.670;13.544;2023-05-29T03:09:44;12.90;53.50
21335;DHT22;69435;52.670;13.544;2023-05-29T03:12:10;12.90;53.60
21335;DHT22;69435;52.670;13.544;2023-05-29T03:14:36;12.90;53.60
21335;DHT22;69435;52.670;13.544;2023-05-29T03:17:05;12.90;53.60
21335;DHT22;69435;52.670;13.544;2023-05-29T03:19:33;12.80;53.50
21335;DHT22;69435;52.670;13.544;2023-05-29T03:21:58;12.90;53.80
21335;DHT22;69435;52.670;13.544;2023-05-29T03:24:24;12.90;54.00
21335;DHT22;69435;52.670;13.544;2023-05-29T03:26:50;12.80;53.90
21335;DHT22;69435;52.670;13.544;2023-05-29T03:29:16;12.80;53.70
21335;DHT22;69435;52.670;13.544;2023-05-29T03:31:42;12.80;53.80
21335;DHT22;69435;52.670;13.544;2023-05-29T03:34:08;12.80;53.90
21335;DHT22;69435;52.670;13.544;2023-05-29T03:36:34;12.80;53.90
21335;DHT22;69435;52.670;13.544;2023-05-29T03:39:02;12.80;53.90
21335;DHT22;69435;52.670;13.544;2023-05-29T03:41:28;12.80;54.00
21335;DHT22;69435;52.670;13.544;2023-05-29T03:43:54;12.80;54.00
21335;DHT22;69435;52.670;13.544;2023-05-29T03:46:20;12.80;54.10
21335;DHT22;69435;52.670;13.544;2023-05-29T03:48:46;12.80;54.10
21335;DHT22;69435;52.670;13.544;2023-05-29T03:51:13;12.90;54.20
21335;DHT22;69435;52.670;13.544;2023-05-29T03:53:39;12.90;54.20
21335;DHT22;69435;52.670;13.544;2023-05-29T03:56:04;12.90;54.10
21335;DHT22;69435;52.670;13.544;2023-05-29T03:58:30;13.00;54.20
21335;DHT22;69435;52.670;13.544;2023-05-29T04:00:56;13.00;54.50
21335;DHT22;69435;52.670;13.544;2023-05-29T04:03:22;13.00;54.40
21335;DHT22;69435;52.670;13.544;2023-05-29T04:05:48;13.00;54.50
21335;DHT22;69435;52.670;13.544;2023-05-29T04:08:14;13.10;54.60
21335;DHT22;69435;52.670;13.544;2023-05-29T04:10:40;13.10;54.50
21335;DHT22;69435;52.670;13.544;2023-05-29T04:13:06;13.30;54.70
21335;DHT22;69435;52.670;13.544;2023-05-29T04:15:32;13.30;54.60
21335;DHT22;69435;52.670;13.544;2023-05-29T04:18:01;13.40;54.60
21335;DHT22;69435;52.670;13.544;2023-05-29T04:20:27;13.40;54.50
21335;DHT22;69435;52.670;13.544;2023-05-29T04:22:53;13.60;54.70
21335;DHT22;69435;52.670;13.544;2023-05-29T04:25:19;13.60;54.60
21335;DHT22;69435;52.670;13.544;2023-05-29T04:27:45;13.70;54.80
21335;DHT22;69435;52.670;13.544;2023-05-29T04:30:15;13.80;54.80
21335;DHT22;69435;52.670;13.544;2023-05-29T04:32:43;13.90;54.70
21335;DHT22;69435;52.670;13.544;2023-05-29T04:35:09;14.00;54.50
21335;DHT22;69435;52.670;13.544;2023-05-29T04:37:35;14.10;54.40
21335;DHT22;69435;52.670;13.544;2023-05-29T04:40:07;14.20;54.20
21335;DHT22;69435;52.670;13.544;2023-05-29T04:42:38;14.30;54.10
21335;DHT22;69435;52.670;13.544;2023-05-29T04:45:06;14.40;54.20
21335;DHT22;69435;52.670;13.544;2023-05-29T04:47:32;14.40;54.10
21335;DHT22;69435;52.670;13.544;2023-05-29T04:50:01;14.50;54.00
21335;DHT22;69435;52.670;13.544;2023-05-29T04:52:27;14.60;53.70
21335;DHT22;69435;52.670;13.544;2023-05-29T04:54:55;14.70;53.60
21335;DHT22;69435;52.670;13.544;2023-05-29T04:57:22;14.90;53.70
21335;DHT22;69435;52.670;13.544;2023-05-29T04:59:48;15.00;53.30
21335;DHT22;69435;52.670;13.544;2023-05-29T05:02:15;15.10;53.30
21335;DHT22;69435;52.670;13.544;2023-05-29T05:04:41;15.20;52.90
21335;DHT22;69435;52.670;13.544;2023-05-29T05:07:08;15.30;52.80
21335;DHT22;69435;52.670;13.544;2023-05-29T05:09:34;15.50;52.90
21335;DHT22;69435;52.670;13.544;2023-05-29T05:12:00;15.60;52.10
21335;DHT22;69435;52.670;13.544;2023-05-29T05:14:27;15.70;52.30
21335;DHT22;69435;52.670;13.544;2023-05-29T05:16:53;15.90;51.70
21335;DHT22;69435;52.670;13.544;2023-05-29T05:19:19;15.90;51.30
21335;DHT22;69435;52.670;13.544;2023-05-29T05:21:45;16.10;51.10
21335;DHT22;69435;52.670;13.544;2023-05-29T05:24:11;16.20;50.60
21335;DHT22;69435;52.670;13.544;2023-05-29T05:26:36;16.30;50.50
21335;DHT22;69435;52.670;13.544;2023-05-29T05:29:02;16.40;50.20
21335;DHT22;69435;52.670;13.544;2023-05-29T05:31:28;16.50;49.50
21335;DHT22;69435;52.670;13.544;2023-05-29T05:33:53;16.60;49.30
21335;DHT22;69435;52.670;13.544;2023-05-29T05:36:19;16.70;49.20
21335;DHT22;69435;52.670;13.544;2023-05-29T05:38:46;16.90;49.00
21335;DHT22;69435;52.670;13.544;2023-05-29T05:41:12;17.00;47.80
21335;DHT22;69435;52.670;13.544;2023-05-29T05:43:38;17.10;47.20
21335;DHT22;69435;52.670;13.544;2023-05-29T05:46:04;17.30;46.60
21335;DHT22;69435;52.670;13.544;2023-05-29T05:48:30;17.30;46.50
21335;DHT22;69435;52.670;13.544;2023-05-29T05:50:56;17.50;46.40
21335;DHT22;69435;52.670;13.544;2023-05-29T05:53:22;17.50;45.70
21335;DHT22;69435;52.670;13.544;2023-05-29T05:55:48;17.60;45.80
21335;DHT22;69435;52.670;13.544;2023-05-29T05:58:13;17.70;45.20
21335;DHT22;69435;52.670;13.544;2023-05-29T06:00:40;17.90;44.50
21335;DHT22;69435;52.670;13.544;2023-05-29T06:03:06;18.00;44.10
21335;DHT22;69435;52.670;13.544;2023-05-29T06:05:32;18.20;43.90
21335;DHT22;69435;52.670;13.544;2023-05-29T06:07:59;18.30;43.70
21335;DHT22;69435;52.670;13.544;2023-05-29T06:10:25;18.40;43.00
21335;DHT22;69435;52.670;13.544;2023-05-29T06:12:52;18.60;43.00
21335;DHT22;69435;52.670;13.544;2023-05-29T06:15:18;18.70;43.00
21335;DHT22;69435;52.670;13.544;2023-05-29T06:17:44;18.90;42.60
21335;DHT22;69435;52.670;13.544;2023-05-29T06:20:10;19.00;41.60
21335;DHT22;69435;52.670;13.544;2023-05-29T06:22:37;19.10;41.10
21335;DHT22;69435;52.670;13.544;2023-05-29T06:25:03;19.20;41.50
21335;DHT22;69435;52.670;13.544;2023-05-29T06:27:30;19.30;41.00
21335;DHT22;69435;52.670;13.544;2023-05-29T06:29:56;19.30;40.00
21335;DHT22;69435;52.670;13.544;2023-05-29T06:32:21;19.30;40.00
21335;DHT22;69435;52.670;13.544;2023-05-29T06:34:47;19.40;41.00
21335;DHT22;69435;52.670;13.544;2023-05-29T06:37:14;19.40;40.60
21335;DHT22;69435;52.670;13.544;2023-05-29T06:39:44;19.60;40.80
21335;DHT22;69435;52.670;13.544;2023-05-29T06:42:10;19.70;40.20
21335;DHT22;69435;52.670;13.544;2023-05-29T06:44:36;19.70;39.00
21335;DHT22;69435;52.670;13.544;2023-05-29T06:47:01;19.80;39.10
21335;DHT22;69435;52.670;13.544;2023-05-29T06:49:27;19.90;39.10
21335;DHT22;69435;52.670;13.544;2023-05-29T06:51:52;20.00;39.30
21335;DHT22;69435;52.670;13.544;2023-05-29T06:54:19;20.10;39.10
21335;DHT22;69435;52.670;13.544;2023-05-29T06:56:44;20.20;39.00
21335;DHT22;69435;52.670;13.544;2023-05-29T06:59:10;20.30;38.90
21335;DHT22;69435;52.670;13.544;2023-05-29T07:01:36;20.40;38.20
21335;DHT22;69435;52.670;13.544;2023-05-29T07:04:02;20.50;38.20
21335;DHT22;69435;52.670;13.544;2023-05-29T07:06:28;20.70;37.70
21335;DHT22;69435;52.670;13.544;2023-05-29T07:08:54;20.80;37.50
21335;DHT22;69435;52.670;13.544;2023-05-29T07:11:20;21.00;36.90
21335;DHT22;69435;52.670;13.544;2023-05-29T07:13:46;21.30;37.10
21335;DHT22;69435;52.670;13.544;2023-05-29T07:16:11;21.70;36.90
21335;DHT22;69435;52.670;13.544;2023-05-29T07:18:37;22.50;37.00
21335;DHT22;69435;52.670;13.544;2023-05-29T07:21:02;23.20;35.30
21335;DHT22;69435;52.670;13.544;2023-05-29T07:23:28;24.10;34.20
21335;DHT22;69435;52.670;13.544;2023-05-29T07:25:54;25.00;32.40
21335;DHT22;69435;52.670;13.544;2023-05-29T07:28:19;25.50;32.40
21335;DHT22;69435;52.670;13.544;2023-05-29T07:30:45;25.80;30.40
21335;DHT22;69435;52.670;13.544;2023-05-29T07:33:11;26.00;30.80
21335;DHT22;69435;52.670;13.544;2023-05-29T07:35:37;26.40;30.50
21335;DHT22;69435;52.670;13.544;2023-05-29T07:38:02;26.90;29.20
21335;DHT22;69435;52.670;13.544;2023-05-29T07:40:28;27.10;28.90
21335;DHT22;69435;52.670;13.544;2023-05-29T07:42:54;27.40;28.80
21335;DHT22;69435;52.670;13.544;2023-05-29T07:45:20;27.70;27.80
21335;DHT22;69435;52.670;13.544;2023-05-29T07:47:46;27.80;27.40
21335;DHT22;69435;52.670;13.544;2023-05-29T07:50:13;27.80;28.70
21335;DHT22;69435;52.670;13.544;2023-05-29T07:52:40;27.90;28.40
21335;DHT22;69435;52.670;13.544;2023-05-29T07:55:08;28.00;27.70
21335;DHT22;69435;52.670;13.544;2023-05-29T07:57:33;28.30;28.00
21335;DHT22;69435;52.670;13.544;2023-05-29T07:59:59;28.50;27.50
21335;DHT22;69435;52.670;13.544;2023-05-29T08:02:25;28.80;27.80
21335;DHT22;69435;52.670;13.544;2023-05-29T08:04:52;29.10;26.50
21335;DHT22;69435;52.670;13.544;2023-05-29T08:07:17;29.50;26.00
21335;DHT22;69435;52.670;13.544;2023-05-29T08:09:43;29.80;25.10
21335;DHT22;69435;52.670;13.544;2023-05-29T08:12:09;30.30;26.40
21335;DHT22;69435;52.670;13.544;2023-05-29T08:14:35;30.70;24.80
21335;DHT22;69435;52.670;13.544;2023-05-29T08:17:01;31.10;26.30
21335;DHT22;69435;52.670;13.544;2023-05-29T08:19:26;31.50;23.90
21335;DHT22;69435;52.670;13.544;2023-05-29T08:21:52;32.00;23.80
21335;DHT22;69435;52.670;13.544;2023-05-29T08:24:17;32.40;23.60
21335;DHT22;69435;52.670;13.544;2023-05-29T08:26:43;32.90;21.50
21335;DHT22;69435;52.670;13.544;2023-05-29T08:29:09;33.10;20.40
21335;DHT22;69435;52.670;13.544;2023-05-29T08:31:36;33.30;20.00
21335;DHT22;69435;52.670;13.544;2023-05-29T08:34:02;33.30;20.60
21335;DHT22;69435;52.670;13.544;2023-05-29T08:36:28;33.30;20.50
21335;DHT22;69435;52.670;13.544;2023-05-29T08:38:54;33.40;19.90
21335;DHT22;69435;52.670;13.544;2023-05-29T08:41:30;33.40;19.80
21335;DHT22;69435;52.670;13.544;2023-05-29T08:44:08;33.60;20.20
21335;DHT22;69435;52.670;13.544;2023-05-29T08:46:40;33.80;20.50
21335;DHT22;69435;52.670;13.544;2023-05-29T08:49:08;33.80;20.00
21335;DHT22;69435;52.670;13.544;2023-05-29T08:51:37;33.80;19.80
21335;DHT22;69435;52.670;13.544;2023-05-29T08:54:10;33.70;20.00
21335;DHT22;69435;52.670;13.544;2023-05-29T08:56:37;33.70;20.30
21335;DHT22;69435;52.670;13.544;2023-05-29T08:59:03;33.80;19.50
21335;DHT22;69435;52.670;13.544;2023-05-29T09:01:28;33.80;19.90
21335;DHT22;69435;52.670;13.544;2023-05-29T09:03:56;33.90;19.80
21335;DHT22;69435;52.670;13.544;2023-05-29T09:06:23;33.90;19.60
21335;DHT22;69435;52.670;13.544;2023-05-29T09:08:52;33.70;19.80
21335;DHT22;69435;52.670;13.544;2023-05-29T09:11:18;33.30;20.00
21335;DHT22;69435;52.670;13.544;2023-05-29T09:13:46;33.20;21.00
21335;DHT22;69435;52.670;13.544;2023-05-29T09:16:12;33.40;21.00
21335;DHT22;69435;52.670;13.544;2023-05-29T09:18:37;33.60;20.70
21335;DHT22;69435;52.670;13.544;2023-05-29T09:21:07;33.80;20.70
21335;DHT22;69435;52.670;13.544;2023-05-29T09:23:34;33.80;19.20
21335;DHT22;69435;52.670;13.544;2023-05-29T09:26:02;33.50;19.50
21335;DHT22;69435;52.670;13.544;2023-05-29T09:28:30;32.90;19.30
21335;DHT22;69435;52.670;13.544;2023-05-29T09:30:57;32.30;20.50
21335;DHT22;69435;52.670;13.544;2023-05-29T09:33:24;31.90;21.20
21335;DHT22;69435;52.670;13.544;2023-05-29T09:35:52;31.80;21.70
21335;DHT22;69435;52.670;13.544;2023-05-29T09:38:19;31.90;21.00
21335;DHT22;69435;52.670;13.544;2023-05-29T09:40:45;31.90;21.50
21335;DHT22;69435;52.670;13.544;2023-05-29T09:43:16;31.90;21.50
21335;DHT22;69435;52.670;13.544;2023-05-29T09:45:47;32.10;21.50
21335;DHT22;69435;52.670;13.544;2023-05-29T09:48:18;32.30;20.30
21335;DHT22;69435;52.670;13.544;2023-05-29T09:50:48;32.40;20.40
21335;DHT22;69435;52.670;13.544;2023-05-29T09:53:25;32.20;20.40
21335;DHT22;69435;52.670;13.544;2023-05-29T09:55:55;31.70;20.00
21335;DHT22;69435;52.670;13.544;2023-05-29T09:58:23;31.10;21.00
21335;DHT22;69435;52.670;13.544;2023-05-29T10:00:51;30.70;21.80
21335;DHT22;69435;52.670;13.544;2023-05-29T10:03:18;30.60;21.60
21335;DHT22;69435;52.670;13.544;2023-05-29T10:05:50;30.60;21.00
21335;DHT22;69435;52.670;13.544;2023-05-29T10:08:18;30.40;21.50
21335;DHT22;69435;52.670;13.544;2023-05-29T10:10:59;30.10;21.10
21335;DHT22;69435;52.670;13.544;2023-05-29T10:13:31;29.60;21.90
21335;DHT22;69435;52.670;13.544;2023-05-29T10:16:01;29.30;23.80
21335;DHT22;69435;52.670;13.544;2023-05-29T10:18:42;29.10;23.80
21335;DHT22;69435;52.670;13.544;2023-05-29T10:21:12;29.30;24.20
21335;DHT22;69435;52.670;13.544;2023-05-29T10:23:43;29.50;23.50
21335;DHT22;69435;52.670;13.544;2023-05-29T10:26:24;29.80;21.80
21335;DHT22;69435;52.670;13.544;2023-05-29T10:29:05;29.70;22.00
21335;DHT22;69435;52.670;13.544;2023-05-29T10:31:43;29.40;22.60
21335;DHT22;69435;52.670;13.544;2023-05-29T10:35:00;29.10;23.60
21335;DHT22;69435;52.670;13.544;2023-05-29T10:37:44;29.00;24.50
21335;DHT22;69435;52.670;13.544;2023-05-29T10:40:15;29.20;23.60
21335;DHT22;69435;52.670;13.544;2023-05-29T10:42:48;29.60;21.10
21335;DHT22;69435;52.670;13.544;2023-05-29T10:50:45;30.20;22.70
21335;DHT22;69435;52.670;13.544;2023-05-29T10:53:23;30.20;22.60
21335;DHT22;69435;52.670;13.544;2023-05-29T10:55:59;30.40;21.10
21335;DHT22;69435;52.670;13.544;2023-05-29T10:58:27;30.60;21.70
21335;DHT22;69435;52.670;13.544;2023-05-29T11:00:54;30.60;20.90
21335;DHT22;69435;52.670;13.544;2023-05-29T11:03:29;30.70;21.50
21335;DHT22;69435;52.670;13.544;2023-05-29T11:06:04;30.80;22.10
21335;DHT22;69435;52.670;13.544;2023-05-29T11:08:44;31.10;21.20
21335;DHT22;69435;52.670;13.544;2023-05-29T11:13:55;31.50;21.20
21335;DHT22;69435;52.670;13.544;2023-05-29T11:18:52;31.90;21.70
21335;DHT22;69435;52.670;13.544;2023-05-29T11:21:30;31.90;20.00
21335;DHT22;69435;52.670;13.544;2023-05-29T11:23:59;31.70;20.00
21335;DHT22;69435;52.670;13.544;2023-05-29T11:26:28;31.30;20.30
21335;DHT22;69435;52.670;13.544;2023-05-29T11:29:00;31.00;20.60
21335;DHT22;69435;52.670;13.544;2023-05-29T11:31:28;30.90;21.90
21335;DHT22;69435;52.670;13.544;2023-05-29T11:33:59;30.80;22.00
21335;DHT22;69435;52.670;13.544;2023-05-29T11:36:26;31.00;22.40
21335;DHT22;69435;52.670;13.544;2023-05-29T11:38:53;31.10;21.40
21335;DHT22;69435;52.670;13.544;2023-05-29T11:41:20;31.10;20.60
21335;DHT22;69435;52.670;13.544;2023-05-29T11:43:59;31.00;20.40
21335;DHT22;69435;52.670;13.544;2023-05-29T11:46:27;30.70;21.50
21335;DHT22;69435;52.670;13.544;2023-05-29T11:48:56;30.50;21.10
21335;DHT22;69435;52.670;13.544;2023-05-29T11:51:22;30.20;22.10
21335;DHT22;69435;52.670;13.544;2023-05-29T11:53:49;30.10;21.70
21335;DHT22;69435;52.670;13.544;2023-05-29T11:56:18;30.00;23.40
21335;DHT22;69435;52.670;13.544;2023-05-29T11:58:44;30.00;21.00
21335;DHT22;69435;52.670;13.544;2023-05-29T12:01:11;29.90;21.20
21335;DHT22;69435;52.670;13.544;2023-05-29T12:03:42;29.90;21.90
21335;DHT22;69435;52.670;13.544;2023-05-29T12:06:09;30.00;21.50
21335;DHT22;69435;52.670;13.544;2023-05-29T12:08:36;29.80;20.50
21335;DHT22;69435;52.670;13.544;2023-05-29T12:11:03;29.60;22.50
21335;DHT22;69435;52.670;13.544;2023-05-29T12:13:30;29.50;23.00
21335;DHT22;69435;52.670;13.544;2023-05-29T12:15:58;29.40;23.20
21335;DHT22;69435;52.670;13.544;2023-05-29T12:18:27;29.50;22.20
21335;DHT22;69435;52.670;13.544;2023-05-29T12:21:03;29.60;22.20
21335;DHT22;69435;52.670;13.544;2023-05-29T12:23:32;29.60;22.30
21335;DHT22;69435;52.670;13.544;2023-05-29T12:25:59;29.60;24.60
21335;DHT22;69435;52.670;13.544;2023-05-29T12:28:25;29.60;22.70
21335;DHT22;69435;52.670;13.544;2023-05-29T12:30:58;29.60;22.70
21335;DHT22;69435;52.670;13.544;2023-05-29T12:33:29;29.60;23.00
21335;DHT22;69435;52.670;13.544;2023-05-29T12:36:07;29.50;21.70
21335;DHT22;69435;52.670;13.544;2023-05-29T12:38:48;29.30;22.10
21335;DHT22;69435;52.670;13.544;2023-05-29T12:41:29;29.00;22.80
21335;DHT22;69435;52.670;13.544;2023-05-29T12:44:02;28.70;22.50
21335;DHT22;69435;52.670;13.544;2023-05-29T12:46:37;28.40;23.30
21335;DHT22;69435;52.670;13.544;2023-05-29T12:49:18;28.20;22.70
21335;DHT22;69435;52.670;13.544;2023-05-29T12:51:47;28.10;23.80
21335;DHT22;69435;52.670;13.544;2023-05-29T12:54:14;28.00;23.10
21335;DHT22;69435;52.670;13.544;2023-05-29T12:56:43;27.80;23.10
21335;DHT22;69435;52.670;13.544;2023-05-29T12:59:11;27.60;22.90
21335;DHT22;69435;52.670;13.544;2023-05-29T13:01:38;27.50;23.30
21335;DHT22;69435;52.670;13.544;2023-05-29T13:04:06;27.40;23.40
21335;DHT22;69435;52.670;13.544;2023-05-29T13:06:34;27.50;25.60
21335;DHT22;69435;52.670;13.544;2023-05-29T13:09:01;27.70;24.40
21335;DHT22;69435;52.670;13.544;2023-05-29T13:11:27;28.00;25.00
21335;DHT22;69435;52.670;13.544;2023-05-29T13:13:53;28.30;25.10
21335;DHT22;69435;52.670;13.544;2023-05-29T13:16:18;28.50;24.40
21335;DHT22;69435;52.670;13.544;2023-05-29T13:18:44;28.80;23.00
21335;DHT22;69435;52.670;13.544;2023-05-29T13:21:10;29.00;25.00
21335;DHT22;69435;52.670;13.544;2023-05-29T13:23:36;29.10;24.30
21335;DHT22;69435;52.670;13.544;2023-05-29T13:26:04;29.30;23.60
21335;DHT22;69435;52.670;13.544;2023-05-29T13:28:31;29.40;22.70
21335;DHT22;69435;52.670;13.544;2023-05-29T13:30:57;29.40;22.50
21335;DHT22;69435;52.670;13.544;2023-05-29T13:33:23;29.50;21.90
21335;DHT22;69435;52.670;13.544;2023-05-29T13:35:49;29.50;22.40
21335;DHT22;69435;52.670;13.544;2023-05-29T13:38:15;29.50;23.50
21335;DHT22;69435;52.670;13.544;2023-05-29T13:40:41;29.30;23.00
21335;DHT22;69435;52.670;13.544;2023-05-29T13:43:07;29.30;22.70
21335;DHT22;69435;52.670;13.544;2023-05-29T13:45:32;29.10;22.50
21335;DHT22;69435;52.670;13.544;2023-05-29T13:47:58;28.90;21.80
21335;DHT22;69435;52.670;13.544;2023-05-29T13:50:24;28.70;21.70
21335;DHT22;69435;52.670;13.544;2023-05-29T13:52:50;28.50;24.50
21335;DHT22;69435;52.670;13.544;2023-05-29T13:55:16;28.40;22.80
21335;DHT22;69435;52.670;13.544;2023-05-29T13:57:42;28.30;23.00
21335;DHT22;69435;52.670;13.544;2023-05-29T14:00:09;28.30;23.00
21335;DHT22;69435;52.670;13.544;2023-05-29T14:02:37;28.30;22.60
21335;DHT22;69435;52.670;13.544;2023-05-29T14:05:03;28.30;23.30
21335;DHT22;69435;52.670;13.544;2023-05-29T14:07:32;28.30;22.40
21335;DHT22;69435;52.670;13.544;2023-05-29T14:09:58;28.10;22.70
21335;DHT22;69435;52.670;13.544;2023-05-29T14:12:23;28.10;24.70
21335;DHT22;69435;52.670;13.544;2023-05-29T14:14:49;28.00;23.50
21335;DHT22;69435;52.670;13.544;2023-05-29T14:17:15;28.00;23.50
21335;DHT22;69435;52.670;13.544;2023-05-29T14:19:41;28.00;23.20
21335;DHT22;69435;52.670;13.544;2023-05-29T14:22:07;28.00;24.00
21335;DHT22;69435;52.670;13.544;2023-05-29T14:24:34;28.00;22.90
21335;DHT22;69435;52.670;13.544;2023-05-29T14:27:01;27.90;21.00
21335;DHT22;69435;52.670;13.544;2023-05-29T14:29:27;27.80;21.50
21335;DHT22;69435;52.670;13.544;2023-05-29T14:31:53;27.60;21.70
21335;DHT22;69435;52.670;13.544;2023-05-29T14:34:19;27.50;21.90
21335;DHT22;69435;52.670;13.544;2023-05-29T14:36:45;27.40;22.00
21335;DHT22;69435;52.670;13.544;2023-05-29T14:39:11;27.20;22.00
21335;DHT22;69435;52.670;13.544;2023-05-29T14:41:38;27.10;23.30
21335;DHT22;69435;52.670;13.544;2023-05-29T14:44:04;26.80;22.50
21335;DHT22;69435;52.670;13.544;2023-05-29T14:46:30;26.70;21.80
21335;DHT22;69435;52.670;13.544;2023-05-29T14:48:59;26.50;23.30
21335;DHT22;69435;52.670;13.544;2023-05-29T14:51:27;26.40;23.20
21335;DHT22;69435;52.670;13.544;2023-05-29T14:53:53;26.40;23.30
21335;DHT22;69435;52.670;13.544;2023-05-29T14:56:20;26.40;23.70
21335;DHT22;69435;52.670;13.544;2023-05-29T14:58:46;26.30;23.10
21335;DHT22;69435;52.670;13.544;2023-05-29T15:01:16;26.30;22.50
21335;DHT22;69435;52.670;13.544;2023-05-29T15:03:42;26.20;23.00
21335;DHT22;69435;52.670;13.544;2023-05-29T15:06:10;26.10;23.40
21335;DHT22;69435;52.670;13.544;2023-05-29T15:08:38;26.10;24.30
21335;DHT22;69435;52.670;13.544;2023-05-29T15:11:05;26.10;24.00
21335;DHT22;69435;52.670;13.544;2023-05-29T15:13:31;26.00;23.10
21335;DHT22;69435;52.670;13.544;2023-05-29T15:15:57;25.90;22.50
21335;DHT22;69435;52.670;13.544;2023-05-29T15:18:29;25.80;23.90
21335;DHT22;69435;52.670;13.544;2023-05-29T15:20:55;25.70;24.40
21335;DHT22;69435;52.670;13.544;2023-05-29T15:23:24;25.70;24.50
21335;DHT22;69435;52.670;13.544;2023-05-29T15:25:51;25.70;24.30
21335;DHT22;69435;52.670;13.544;2023-05-29T15:28:17;25.60;24.90
21335;DHT22;69435;52.670;13.544;2023-05-29T15:30:44;25.40;25.10
21335;DHT22;69435;52.670;13.544;2023-05-29T15:33:10;25.30;24.70
21335;DHT22;69435;52.670;13.544;2023-05-29T15:35:37;25.30;25.10
21335;DHT22;69435;52.670;13.544;2023-05-29T15:38:04;25.20;25.30